Time;durP1;ratioP1;P1;durP2;ratioP2;P2;SDS_P1;SDS_P2;PMS_P1;PMS_P2;Temp;Humidity;BMP_temperature;BMP_pressure;BME280_temperature;BME280_humidity;BME280_pressure;Samples;Min_cycle;Max_cycle;Signal;HPM_P1;HPM_P2
2021/09/26 00:02:13;;;;;;;8.80;7.70;;;17.30;99.90;;;;;;6088950;23;20596;-79
2021/09/26 00:04:47;;;;;;;9.67;8.77;;;17.50;99.90;;;;;;6089274;23;20913;-80
2021/09/26 00:07:31;;;;;;;7.87;7.17;;;17.50;99.90;;;;;;6088632;23;20904;-79
2021/09/26 00:10:13;;;;;;;7.93;7.27;;;17.60;99.90;;;;;;6089166;23;20538;-79
2021/09/26 00:12:49;;;;;;;9.30;8.20;;;17.70;99.90;;;;;;6089410;23;20560;-79
2021/09/26 00:15:23;;;;;;;7.87;7.17;;;17.80;99.90;;;;;;6089152;23;20966;-79
2021/09/26 00:18:04;;;;;;;8.30;7.60;;;17.80;99.90;;;;;;6088477;23;20546;-79
2021/09/26 00:20:45;;;;;;;8.07;7.27;;;17.70;99.90;;;;;;6089050;23;20592;-79
2021/09/26 00:23:20;;;;;;;9.97;7.20;;;17.70;99.90;;;;;;6088426;23;20990;-79
2021/09/26 00:25:57;;;;;;;10.20;7.40;;;17.80;99.90;;;;;;6089137;23;20586;-79
2021/09/26 00:28:41;;;;;;;8.83;8.03;;;17.90;99.90;;;;;;6088238;23;20641;-79
2021/09/26 00:31:16;;;;;;;11.10;8.37;;;17.90;99.90;;;;;;6088974;23;20587;-79
2021/09/26 00:33:49;;;;;;;8.10;7.30;;;17.90;99.90;;;;;;6088105;23;20646;-79
2021/09/26 00:36:35;;;;;;;8.40;7.60;;;17.80;99.90;;;;;;6088062;23;20629;-79
2021/09/26 00:39:12;;;;;;;8.80;8.00;;;17.70;99.90;;;;;;6087251;23;20725;-79
2021/09/26 00:41:51;;;;;;;9.43;8.57;;;17.70;99.90;;;;;;6089086;23;20561;-79
2021/09/26 00:44:28;;;;;;;9.07;8.17;;;17.70;99.90;;;;;;6088857;23;20621;-79
2021/09/26 00:47:07;;;;;;;9.43;7.37;;;17.70;99.90;;;;;;6088147;23;20628;-79
2021/09/26 00:49:47;;;;;;;8.00;6.83;;;17.70;99.90;;;;;;6089041;23;20933;-79
2021/09/26 00:52:26;;;;;;;8.10;7.40;;;17.70;99.90;;;;;;6088220;23;20609;-79
2021/09/26 00:55:03;;;;;;;12.53;7.40;;;17.70;99.90;;;;;;6088750;23;20600;-79
2021/09/26 00:57:40;;;;;;;8.40;7.70;;;17.70;99.90;;;;;;6088577;23;20588;-79
2021/09/26 01:00:17;;;;;;;8.53;7.80;;;17.70;99.90;;;;;;6089809;23;21111;-79
2021/09/26 01:03:04;;;;;;;8.23;7.43;;;17.70;99.90;;;;;;6089426;23;21327;-79
2021/09/26 01:06:03;;;;;;;8.60;7.77;;;17.60;99.90;;;;;;6088795;23;20613;-79
2021/09/26 01:08:51;;;;;;;7.83;7.13;;;17.60;99.90;;;;;;6089266;23;20620;-79
2021/09/26 01:11:49;;;;;;;9.10;8.30;;;17.60;99.90;;;;;;6090019;22;20684;-79
2021/09/26 01:14:47;;;;;;;8.47;7.60;;;17.60;99.90;;;;;;6088653;23;20579;-79
2021/09/26 01:17:37;;;;;;;8.23;7.43;;;17.70;99.90;;;;;;6089152;23;21200;-79
2021/09/26 01:20:43;;;;;;;10.43;9.40;;;17.70;99.90;;;;;;6088697;23;20588;-79
2021/09/26 01:24:02;;;;;;;9.40;8.50;;;17.90;99.90;;;;;;6088049;23;20716;-79
2021/09/26 01:26:59;;;;;;;8.03;7.33;;;17.80;99.90;;;;;;6089317;23;21210;-79
2021/09/26 01:30:17;;;;;;;9.33;8.30;;;17.70;99.90;;;;;;6089532;23;20614;-79
2021/09/26 01:33:13;;;;;;;8.27;7.40;;;17.80;99.90;;;;;;6088791;23;20673;-79
2021/09/26 01:36:04;;;;;;;9.70;7.73;;;17.80;99.90;;;;;;6088554;23;20621;-79
2021/09/26 01:38:59;;;;;;;8.40;7.60;;;17.80;99.90;;;;;;6088463;23;20574;-79
2021/09/26 01:41:34;;;;;;;9.00;7.63;;;17.70;99.90;;;;;;6090061;23;20648;-79
2021/09/26 01:44:19;;;;;;;8.87;8.10;;;17.80;99.90;;;;;;6089810;23;20613;-79
2021/09/26 01:46:56;;;;;;;11.30;7.53;;;17.70;99.90;;;;;;6089324;23;20622;-79
2021/09/26 01:49:37;;;;;;;8.50;7.60;;;17.60;99.90;;;;;;6090396;23;20572;-79
2021/09/26 01:52:21;;;;;;;7.63;6.93;;;17.60;99.90;;;;;;6090065;23;20537;-79
2021/09/26 01:54:59;;;;;;;7.80;7.00;;;17.70;99.90;;;;;;6089151;22;20648;-79
2021/09/26 01:57:40;;;;;;;8.00;7.00;;;17.70;99.90;;;;;;6089240;22;21228;-79
2021/09/26 02:00:13;;;;;;;8.80;7.90;;;17.60;99.90;;;;;;6089962;23;21374;-79
2021/09/26 02:03:00;;;;;;;8.77;7.47;;;17.50;99.90;;;;;;6089860;23;20623;-79
2021/09/26 02:05:45;;;;;;;9.53;7.80;;;17.50;99.90;;;;;;6089696;23;20626;-79
2021/09/26 02:08:26;;;;;;;9.33;7.10;;;17.50;99.90;;;;;;6089030;23;20593;-79
2021/09/26 02:11:04;;;;;;;8.03;7.23;;;17.40;99.90;;;;;;6089085;23;20581;-79
2021/09/26 02:13:39;;;;;;;7.87;7.10;;;17.30;99.90;;;;;;6089515;23;20642;-79
2021/09/26 02:16:22;;;;;;;9.35;8.45;;;17.20;99.90;;;;;;6088707;23;20752;-79
2021/09/26 02:18:59;;;;;;;11.43;8.40;;;17.20;99.90;;;;;;6089821;23;20217;-79
2021/09/26 02:21:48;;;;;;;10.60;7.83;;;17.20;99.90;;;;;;6088268;23;20693;-79
2021/09/26 02:24:24;;;;;;;8.07;7.37;;;17.30;99.90;;;;;;6089779;23;20574;-79
2021/09/26 02:27:01;;;;;;;10.10;9.10;;;17.30;99.90;;;;;;6089044;23;20613;-79
2021/09/26 02:29:40;;;;;;;11.47;8.17;;;17.30;99.90;;;;;;6089688;23;20683;-79
2021/09/26 02:32:18;;;;;;;9.43;7.57;;;17.30;99.90;;;;;;6089437;23;20615;-79
2021/09/26 02:34:59;;;;;;;7.97;7.30;;;17.30;99.90;;;;;;6089750;23;21176;-79
2021/09/26 02:37:40;;;;;;;7.57;6.97;;;17.30;99.90;;;;;;6087796;23;20617;-79
2021/09/26 02:40:16;;;;;;;9.60;8.70;;;17.20;99.90;;;;;;6089564;23;20865;-79
2021/09/26 02:43:04;;;;;;;13.40;8.90;;;17.30;99.90;;;;;;6089016;23;20595;-79
2021/09/26 02:45:44;;;;;;;8.47;7.67;;;17.20;99.90;;;;;;6089687;23;20592;-79
2021/09/26 02:48:27;;;;;;;9.10;8.30;;;17.00;99.90;;;;;;6088886;23;20592;-79
2021/09/26 02:51:05;;;;;;;9.60;7.07;;;17.00;99.90;;;;;;6089391;23;20583;-79
2021/09/26 02:53:42;;;;;;;9.83;7.90;;;16.80;99.90;;;;;;6089553;23;20557;-79
2021/09/26 02:56:20;;;;;;;8.40;7.60;;;16.80;99.90;;;;;;6089020;23;20680;-79
2021/09/26 02:59:00;;;;;;;10.30;9.20;;;16.70;99.90;;;;;;6089820;23;20537;-79
2021/09/26 03:01:35;;;;;;;8.23;7.33;;;16.60;99.90;;;;;;6089829;23;20553;-79
2021/09/26 03:04:22;;;;;;;8.40;7.70;;;16.50;99.90;;;;;;6089644;23;20633;-79
2021/09/26 03:07:09;;;;;;;8.53;7.20;;;16.50;99.90;;;;;;6087658;23;20582;-79
2021/09/26 03:09:56;;;;;;;9.90;8.53;;;16.50;99.90;;;;;;6089011;23;20694;-79
2021/09/26 03:12:34;;;;;;;9.27;8.37;;;16.50;99.90;;;;;;6089659;23;20565;-79
2021/09/26 03:15:21;;;;;;;7.83;7.23;;;16.50;99.90;;;;;;6088180;23;21199;-79
2021/09/26 03:18:04;;;;;;;8.87;8.17;;;16.30;99.90;;;;;;6089121;23;20966;-79
2021/09/26 03:20:51;;;;;;;8.47;7.67;;;16.30;99.90;;;;;;6089022;23;20610;-79
2021/09/26 03:23:39;;;;;;;9.50;8.53;;;16.30;99.90;;;;;;6088116;23;20712;-79
2021/09/26 03:26:15;;;;;;;8.77;8.03;;;16.20;99.90;;;;;;6089791;23;20564;-78
2021/09/26 03:29:01;;;;;;;8.50;7.70;;;16.20;99.90;;;;;;6087787;23;20604;-79
2021/09/26 03:31:48;;;;;;;9.43;8.53;;;16.10;99.90;;;;;;6089437;23;20598;-78
2021/09/26 03:34:30;;;;;;;9.70;8.80;;;16.00;99.90;;;;;;6089448;23;20572;-78
2021/09/26 03:37:17;;;;;;;9.97;9.07;;;15.90;99.90;;;;;;6087513;23;21186;-79
2021/09/26 03:40:06;;;;;;;10.93;8.90;;;15.80;99.90;;;;;;6087856;23;20627;-78
2021/09/26 03:42:51;;;;;;;9.13;8.33;;;15.80;99.90;;;;;;6089492;23;20551;-77
2021/09/26 03:45:32;;;;;;;8.53;7.83;;;15.90;99.90;;;;;;6089331;23;20571;-77
2021/09/26 03:48:12;;;;;;;10.03;8.97;;;16.10;99.90;;;;;;6088435;23;20589;-78
2021/09/26 03:50:59;;;;;;;8.53;7.83;;;16.00;99.90;;;;;;6089440;23;20685;-77
2021/09/26 03:53:42;;;;;;;9.77;8.87;;;16.00;99.90;;;;;;6089430;23;20559;-78
2021/09/26 03:56:24;;;;;;;10.00;9.00;;;16.10;99.90;;;;;;6088575;23;20578;-78
2021/09/26 03:59:01;;;;;;;10.00;8.70;;;16.10;99.90;;;;;;6089284;23;20585;-78
2021/09/26 04:01:36;;;;;;;9.40;8.40;;;16.10;99.90;;;;;;6089052;23;20574;-78
2021/09/26 04:04:14;;;;;;;10.33;8.23;;;16.20;99.90;;;;;;6089155;23;20628;-78
2021/09/26 04:07:00;;;;;;;9.40;8.60;;;16.20;99.90;;;;;;6089039;23;21081;-78
2021/09/26 04:09:39;;;;;;;12.70;9.27;;;16.10;99.90;;;;;;6088995;23;20575;-77
2021/09/26 04:12:18;;;;;;;8.57;7.87;;;16.10;99.90;;;;;;6089098;23;20561;-77
2021/09/26 04:14:56;;;;;;;7.97;7.23;;;16.00;99.90;;;;;;6089367;23;20593;-78
2021/09/26 04:17:42;;;;;;;9.63;8.73;;;15.90;99.90;;;;;;6087198;23;20674;-77
2021/09/26 04:20:17;;;;;;;9.43;8.60;;;15.90;99.90;;;;;;6088837;23;20636;-78
2021/09/26 04:23:04;;;;;;;11.93;8.57;;;15.80;99.90;;;;;;6088016;23;20886;-77
2021/09/26 04:25:38;;;;;;;9.00;8.17;;;15.80;99.90;;;;;;6088949;22;20582;-78
2021/09/26 04:28:14;;;;;;;9.13;8.20;;;15.80;99.90;;;;;;6088068;23;20980;-78
2021/09/26 04:30:55;;;;;;;8.57;7.83;;;15.80;99.90;;;;;;6088923;23;20955;-78
2021/09/26 04:33:35;;;;;;;9.00;7.67;;;15.80;99.90;;;;;;6091333;23;20921;-78
2021/09/26 04:36:13;;;;;;;9.47;7.83;;;15.80;99.90;;;;;;6092368;23;20605;-77
2021/09/26 04:39:00;;;;;;;9.27;8.40;;;15.80;99.90;;;;;;6090145;23;20942;-78
2021/09/26 04:41:33;;;;;;;10.27;9.37;;;15.80;99.90;;;;;;6092044;22;20693;-78
2021/09/26 04:44:20;;;;;;;10.63;9.13;;;15.80;99.90;;;;;;6090662;23;20714;-78
2021/09/26 04:47:01;;;;;;;10.27;9.20;;;15.70;99.90;;;;;;6091374;23;21125;-77
2021/09/26 04:49:39;;;;;;;10.00;9.10;;;15.80;99.90;;;;;;6091867;23;20582;-78
2021/09/26 04:52:13;;;;;;;8.90;8.10;;;15.70;99.90;;;;;;6092422;23;20635;-78
2021/09/26 04:54:50;;;;;;;9.93;8.60;;;15.70;99.90;;;;;;6091865;23;20694;-78
2021/09/26 04:57:37;;;;;;;9.20;8.40;;;15.60;99.90;;;;;;6090154;23;20616;-78
2021/09/26 05:00:24;;;;;;;9.30;7.77;;;15.60;99.90;;;;;;6091280;23;20923;-78
2021/09/26 05:03:13;;;;;;;9.17;8.27;;;15.50;99.90;;;;;;6090639;23;20583;-78
2021/09/26 05:06:00;;;;;;;8.60;7.90;;;15.50;99.90;;;;;;6090150;23;20665;-77
2021/09/26 05:08:45;;;;;;;9.30;7.87;;;15.40;99.90;;;;;;6090805;23;20592;-78
2021/09/26 05:11:26;;;;;;;12.20;8.27;;;15.40;99.90;;;;;;6091575;23;20583;-78
2021/09/26 05:14:07;;;;;;;9.83;8.83;;;15.40;99.90;;;;;;6091844;23;20547;-77
2021/09/26 05:16:54;;;;;;;10.00;8.60;;;15.40;99.90;;;;;;6088259;23;20676;-77
2021/09/26 05:19:28;;;;;;;9.33;8.43;;;15.40;99.90;;;;;;6091435;23;21499;-78
2021/09/26 05:22:11;;;;;;;9.13;8.33;;;15.40;99.90;;;;;;6091928;23;20559;-79
2021/09/26 05:24:52;;;;;;;10.70;9.70;;;15.40;99.90;;;;;;6091449;23;21253;-78
2021/09/26 05:27:39;;;;;;;8.80;8.10;;;15.40;99.90;;;;;;6090963;23;20625;-79
2021/09/26 05:30:33;;;;;;;9.90;8.90;;;15.40;99.90;;;;;;6088536;23;20604;-79
2021/09/26 05:33:16;;;;;;;9.63;8.70;;;15.40;99.90;;;;;;6089484;23;20573;-79
2021/09/26 05:35:50;;;;;;;9.23;8.40;;;15.30;99.90;;;;;;6088522;23;20533;-79
2021/09/26 05:38:33;;;;;;;10.20;9.13;;;15.30;99.90;;;;;;6089676;23;20638;-80
2021/09/26 05:41:06;;;;;;;9.03;7.73;;;15.30;99.90;;;;;;6089483;23;20685;-80
2021/09/26 05:43:48;;;;;;;9.90;9.00;;;15.20;99.90;;;;;;6088688;23;20582;-78
2021/09/26 05:46:35;;;;;;;10.40;9.40;;;15.20;99.90;;;;;;6086835;23;20669;-79
2021/09/26 05:49:08;;;;;;;12.47;11.00;;;15.20;99.90;;;;;;6088427;23;20621;-79
2021/09/26 05:51:48;;;;;;;9.63;8.47;;;15.20;99.90;;;;;;6089952;23;21088;-79
2021/09/26 05:54:29;;;;;;;10.93;9.00;;;15.20;99.90;;;;;;6089905;23;20874;-82
2021/09/26 05:57:09;;;;;;;12.67;11.47;;;15.30;99.90;;;;;;6089251;23;20633;-80
2021/09/26 05:59:52;;;;;;;11.70;10.60;;;15.30;99.90;;;;;;6089197;23;20578;-80
2021/09/26 06:02:38;;;;;;;13.57;11.30;;;15.30;99.90;;;;;;6087617;23;20625;-79
2021/09/26 06:05:11;;;;;;;13.50;12.10;;;15.30;99.90;;;;;;6089898;23;20587;-80
2021/09/26 06:07:48;;;;;;;12.60;11.40;;;15.40;99.90;;;;;;6088963;23;20563;-79
2021/09/26 06:10:27;;;;;;;12.67;11.47;;;15.40;99.90;;;;;;6089899;23;20966;-80
2021/09/26 06:13:03;;;;;;;12.80;11.60;;;15.40;99.90;;;;;;6089229;23;20586;-80
2021/09/26 06:15:50;;;;;;;14.53;13.13;;;15.40;99.90;;;;;;6087936;23;20693;-80
2021/09/26 06:18:37;;;;;;;13.03;11.63;;;15.40;99.90;;;;;;6087313;23;20612;-80
2021/09/26 06:21:12;;;;;;;12.83;11.60;;;15.50;99.90;;;;;;6089293;23;20581;-80
2021/09/26 06:24:05;;;;;;;13.37;12.17;;;15.60;99.90;;;;;;6088494;23;20949;-79
2021/09/26 06:26:52;;;;;;;13.33;11.93;;;15.70;99.90;;;;;;6087121;23;20610;-79
2021/09/26 06:29:36;;;;;;;12.47;11.27;;;15.80;99.90;;;;;;6088872;23;20656;-79
2021/09/26 06:32:12;;;;;;;13.60;11.40;;;15.80;99.90;;;;;;6088007;23;20614;-80
2021/09/26 06:34:46;;;;;;;11.63;10.53;;;15.90;99.90;;;;;;6089819;23;20589;-79
2021/09/26 06:37:26;;;;;;;12.73;11.43;;;16.00;99.90;;;;;;6088955;23;20717;-79
2021/09/26 06:39:59;;;;;;;11.90;10.20;;;16.00;99.90;;;;;;6089054;23;20978;-79
2021/09/26 06:42:47;;;;;;;10.43;9.53;;;16.10;99.90;;;;;;6088257;23;20588;-79
2021/09/26 06:45:21;;;;;;;12.10;10.97;;;16.20;99.90;;;;;;6087989;23;20982;-80
2021/09/26 06:48:08;;;;;;;12.10;10.67;;;16.30;99.90;;;;;;6087331;23;20621;-78
2021/09/26 06:50:45;;;;;;;11.33;10.23;;;16.30;99.90;;;;;;6088677;23;20615;-79
2021/09/26 06:53:32;;;;;;;12.67;11.40;;;16.40;99.90;;;;;;6089964;23;20930;-79
2021/09/26 06:56:12;;;;;;;13.60;10.97;;;16.50;99.90;;;;;;6090040;23;20588;-79
2021/09/26 06:58:54;;;;;;;14.67;10.50;;;16.50;99.90;;;;;;6089255;23;20558;-79
2021/09/26 07:01:27;;;;;;;10.17;9.27;;;16.60;99.90;;;;;;6089189;23;20564;-79
2021/09/26 07:04:24;;;;;;;12.10;9.73;;;16.70;99.90;;;;;;6088574;23;20632;-80
2021/09/26 07:07:02;;;;;;;11.40;9.50;;;16.90;99.90;;;;;;6089524;23;21115;-79
2021/09/26 07:09:49;;;;;;;10.27;9.10;;;17.00;99.90;;;;;;6088559;23;20994;-79
2021/09/26 07:12:23;;;;;;;11.40;10.20;;;17.10;99.90;;;;;;6088907;23;20585;-79
2021/09/26 07:15:01;;;;;;;10.60;9.63;;;17.30;99.90;;;;;;6088326;23;20582;-79
2021/09/26 07:17:37;;;;;;;11.63;9.80;;;17.40;99.90;;;;;;6086683;23;20693;-79
2021/09/26 07:20:14;;;;;;;11.50;9.40;;;17.60;99.90;;;;;;6089584;23;20577;-79
2021/09/26 07:22:49;;;;;;;10.90;9.90;;;17.80;99.90;;;;;;6088852;23;20563;-79
2021/09/26 07:25:30;;;;;;;10.60;9.60;;;18.00;99.90;;;;;;6087489;23;20589;-79
2021/09/26 07:28:07;;;;;;;12.00;10.17;;;18.00;99.90;;;;;;6086968;23;20636;-78
2021/09/26 07:30:54;;;;;;;10.20;9.20;;;18.10;99.90;;;;;;6088277;23;20694;-79
2021/09/26 07:33:41;;;;;;;10.83;9.90;;;18.20;99.90;;;;;;6088486;23;20597;-78
2021/09/26 07:36:25;;;;;;;8.70;8.00;;;18.30;99.90;;;;;;6088844;23;20653;-78
2021/09/26 07:39:10;;;;;;;10.30;9.20;;;18.40;99.90;;;;;;6088748;23;20603;-78
2021/09/26 07:41:51;;;;;;;9.37;8.47;;;18.40;99.90;;;;;;6088082;23;20536;-79
2021/09/26 07:44:32;;;;;;;9.20;7.50;;;18.50;99.90;;;;;;6081824;23;20574;-81
2021/09/26 07:47:10;;;;;;;10.27;9.17;;;18.60;99.90;;;;;;6087163;23;21115;-80
2021/09/26 07:49:44;;;;;;;13.00;8.87;;;18.70;99.90;;;;;;6088802;23;21150;-80
2021/09/26 07:52:19;;;;;;;9.40;8.50;;;18.80;99.90;;;;;;6089559;23;20587;-79
2021/09/26 07:55:26;;;;;;;9.67;8.70;;;18.90;99.90;;;;;;6083890;23;20629;-80
2021/09/26 07:58:09;;;;;;;11.93;9.93;;;19.00;99.90;;;;;;6089620;23;20992;-79
2021/09/26 08:00:56;;;;;;;11.40;8.97;;;18.90;99.90;;;;;;6089734;23;20597;-79
2021/09/26 08:03:42;;;;;;;9.50;8.70;;;19.00;99.90;;;;;;6088863;23;21211;-79
2021/09/26 08:06:18;;;;;;;13.10;8.00;;;19.10;99.90;;;;;;6088894;23;20571;-79
2021/09/26 08:09:06;;;;;;;8.90;7.80;;;19.20;99.90;;;;;;6088283;23;20602;-79
2021/09/26 08:11:42;;;;;;;12.03;8.17;;;19.30;99.90;;;;;;6089492;23;20582;-79
2021/09/26 08:14:19;;;;;;;10.03;9.13;;;19.40;99.90;;;;;;6088642;23;20606;-79
2021/09/26 08:17:24;;;;;;;9.27;7.80;;;19.60;99.90;;;;;;6089441;23;20653;-79
2021/09/26 08:20:21;;;;;;;9.60;7.17;;;19.80;99.90;;;;;;6086390;23;20652;-81
2021/09/26 08:23:09;;;;;;;9.37;7.00;;;19.80;99.90;;;;;;6087508;23;20666;-78
2021/09/26 08:25:54;;;;;;;15.60;8.00;;;19.80;99.90;;;;;;6088717;23;20641;-80
2021/09/26 08:28:35;;;;;;;9.23;8.43;;;19.70;99.90;;;;;;6088923;23;21128;-78
2021/09/26 08:31:21;;;;;;;10.77;9.70;;;19.90;99.90;;;;;;6088766;23;20886;-79
2021/09/26 08:34:01;;;;;;;8.20;7.40;;;19.80;99.90;;;;;;6088947;23;20703;-79
2021/09/26 08:36:39;;;;;;;8.43;7.70;;;19.70;99.90;;;;;;6087907;23;20595;-79
2021/09/26 08:39:49;;;;;;;8.80;7.90;;;19.90;99.90;;;;;;6086996;23;20574;-79
2021/09/26 08:42:22;;;;;;;8.63;7.87;;;20.00;99.90;;;;;;6088666;23;21102;-79
2021/09/26 08:44:52;;;;;;;9.37;8.20;;;20.30;99.90;;;;;;6089127;23;20612;-79
2021/09/26 08:47:39;;;;;;;7.40;6.77;;;20.30;99.90;;;;;;6088725;23;20591;-79
2021/09/26 08:50:16;;;;;;;9.63;7.80;;;20.30;99.90;;;;;;6088923;23;20584;-79
2021/09/26 08:52:48;;;;;;;10.50;8.27;;;20.40;99.90;;;;;;6088894;23;20592;-79
2021/09/26 08:55:25;;;;;;;7.20;6.50;;;20.40;99.90;;;;;;6089150;23;20610;-79
2021/09/26 08:58:10;;;;;;;10.60;7.90;;;20.50;99.90;;;;;;6089244;23;20939;-79
2021/09/26 09:00:51;;;;;;;10.90;8.63;;;20.70;99.90;;;;;;6089541;23;20592;-79
2021/09/26 09:03:38;;;;;;;8.13;7.23;;;20.50;99.90;;;;;;6088300;22;20591;-79
2021/09/26 09:06:14;;;;;;;8.10;7.30;;;20.40;99.90;;;;;;6088824;23;21154;-79
2021/09/26 09:09:07;;;;;;;9.70;8.33;;;20.20;99.90;;;;;;6089303;22;20960;-79
2021/09/26 09:12:00;;;;;;;8.10;7.30;;;20.20;99.90;;;;;;6088584;23;20679;-79
2021/09/26 09:14:52;;;;;;;11.63;8.73;;;20.20;99.90;;;;;;6087969;23;20623;-79
2021/09/26 09:17:41;;;;;;;9.10;7.53;;;20.20;99.90;;;;;;6088797;23;20685;-79
2021/09/26 09:20:29;;;;;;;9.13;8.33;;;20.30;99.90;;;;;;6090099;23;20676;-79
2021/09/26 09:23:13;;;;;;;9.33;8.53;;;20.40;99.90;;;;;;6089434;23;20596;-79
2021/09/26 09:25:46;;;;;;;10.07;9.03;;;20.50;99.90;;;;;;6090297;23;20622;-79
2021/09/26 09:28:39;;;;;;;12.43;9.37;;;20.50;99.90;;;;;;6089320;23;20682;-79
2021/09/26 09:31:24;;;;;;;9.77;8.47;;;20.30;99.90;;;;;;6089533;23;20598;-79
2021/09/26 09:34:07;;;;;;;9.90;8.90;;;20.30;99.90;;;;;;6090129;23;20619;-79
2021/09/26 09:36:44;;;;;;;12.90;9.90;;;20.20;99.90;;;;;;6089829;23;20527;-78
2021/09/26 09:39:17;;;;;;;13.20;11.40;;;20.20;99.90;;;;;;6090010;22;20694;-78
2021/09/26 09:41:55;;;;;;;11.33;8.87;;;20.20;99.90;;;;;;6090175;23;20536;-80
2021/09/26 09:44:44;;;;;;;10.70;9.60;;;20.10;99.90;;;;;;6089072;23;20625;-79
2021/09/26 09:47:23;;;;;;;11.03;9.93;;;20.30;99.90;;;;;;6089644;23;20637;-81
2021/09/26 09:49:58;;;;;;;10.87;9.80;;;20.10;99.90;;;;;;6089890;23;21142;-78
2021/09/26 09:52:46;;;;;;;9.77;8.87;;;20.10;99.90;;;;;;6089139;23;20619;-80
2021/09/26 09:55:26;;;;;;;11.03;9.40;;;20.10;99.90;;;;;;6090498;23;20527;-80
2021/09/26 09:58:13;;;;;;;11.37;10.27;;;20.10;99.90;;;;;;6089315;23;21085;-80
2021/09/26 10:00:53;;;;;;;10.87;9.97;;;19.90;99.90;;;;;;6090711;23;20549;-80
2021/09/26 10:03:49;;;;;;;11.37;10.20;;;19.60;99.90;;;;;;6090136;23;21158;-81
2021/09/26 10:06:36;;;;;;;11.30;10.27;;;19.50;99.90;;;;;;6089213;23;20709;-78
2021/09/26 10:09:25;;;;;;;12.23;9.80;;;19.40;99.90;;;;;;6087916;23;20587;-78
2021/09/26 10:12:20;;;;;;;13.07;11.60;;;19.40;99.90;;;;;;6087621;23;20978;-78
2021/09/26 10:15:00;;;;;;;14.13;11.40;;;19.20;99.90;;;;;;6089748;23;20606;-79
2021/09/26 10:17:42;;;;;;;13.97;12.43;;;19.10;99.90;;;;;;6089987;23;21178;-79
2021/09/26 10:20:24;;;;;;;14.20;11.37;;;19.00;99.90;;;;;;6089195;23;20585;-79
2021/09/26 10:23:11;;;;;;;11.43;10.43;;;18.90;99.90;;;;;;6089330;23;20681;-79
2021/09/26 10:26:00;;;;;;;14.90;11.87;;;19.00;99.90;;;;;;6086752;23;20702;-80
2021/09/26 10:28:42;;;;;;;13.33;12.03;;;19.10;99.90;;;;;;6089001;23;20602;-80
2021/09/26 10:31:30;;;;;;;13.63;12.30;;;19.20;99.90;;;;;;6087334;23;20597;-79
2021/09/26 10:34:21;;;;;;;15.00;13.60;;;19.20;99.90;;;;;;6089131;23;20897;-79
2021/09/26 10:37:04;;;;;;;12.43;11.00;;;19.30;99.90;;;;;;6088633;23;20834;-79
2021/09/26 10:39:43;;;;;;;10.97;9.87;;;19.30;99.90;;;;;;6083005;23;20681;-79
2021/09/26 10:42:38;;;;;;;13.30;10.80;;;19.50;99.90;;;;;;6089254;23;20692;-81
2021/09/26 10:45:24;;;;;;;11.57;10.37;;;19.60;99.90;;;;;;6089214;23;20586;-79
2021/09/26 10:48:11;;;;;;;14.10;11.77;;;19.60;99.90;;;;;;6087929;23;20616;-79
2021/09/26 10:50:45;;;;;;;13.33;11.83;;;19.60;99.90;;;;;;6089018;23;20558;-79
2021/09/26 10:53:32;;;;;;;11.60;10.50;;;19.60;99.90;;;;;;6086833;23;20962;-79
2021/09/26 10:56:25;;;;;;;11.57;10.47;;;19.60;99.90;;;;;;6089659;23;20611;-79
2021/09/26 10:59:13;;;;;;;12.57;11.47;;;19.60;99.90;;;;;;6087304;23;21200;-79
2021/09/26 11:02:00;;;;;;;9.90;8.90;;;19.60;99.90;;;;;;6088534;23;20581;-79
2021/09/26 11:04:39;;;;;;;11.43;10.33;;;19.50;99.90;;;;;;6089833;23;20590;-79
2021/09/26 11:07:19;;;;;;;11.10;9.93;;;19.50;99.90;;;;;;6088756;23;20613;-79
2021/09/26 11:09:56;;;;;;;11.80;10.60;;;19.40;99.90;;;;;;6089818;23;20598;-78
2021/09/26 11:12:40;;;;;;;11.40;10.07;;;19.30;99.90;;;;;;6090052;23;20560;-79
2021/09/26 11:15:17;;;;;;;10.20;9.17;;;19.10;99.90;;;;;;6089299;23;20578;-79
2021/09/26 11:17:57;;;;;;;10.83;9.73;;;19.10;99.90;;;;;;6090049;23;20562;-79
2021/09/26 11:20:43;;;;;;;13.73;10.00;;;19.10;99.90;;;;;;6089990;23;21068;-79
2021/09/26 11:23:34;;;;;;;12.00;9.70;;;19.20;99.90;;;;;;6089860;23;20559;-79
2021/09/26 11:26:07;;;;;;;11.07;9.97;;;19.10;99.90;;;;;;6089593;23;21018;-79
2021/09/26 11:29:00;;;;;;;10.07;9.00;;;19.20;99.90;;;;;;6089813;23;20606;-79
2021/09/26 11:31:44;;;;;;;10.70;9.70;;;19.10;99.90;;;;;;6089193;23;20598;-79
2021/09/26 11:34:39;;;;;;;14.60;10.57;;;19.20;99.90;;;;;;6089751;22;20583;-79
2021/09/26 11:37:40;;;;;;;9.30;8.33;;;19.20;99.90;;;;;;6089373;23;20612;-79
2021/09/26 11:41:05;;;;;;;10.60;9.60;;;19.20;99.90;;;;;;6089336;22;20575;-79
2021/09/26 11:43:45;;;;;;;13.40;8.97;;;19.00;99.90;;;;;;6089183;23;20543;-79
2021/09/26 11:46:27;;;;;;;10.13;9.10;;;18.90;99.90;;;;;;6089710;23;20650;-79
2021/09/26 11:49:11;;;;;;;10.40;9.40;;;18.90;99.90;;;;;;6089727;23;20575;-79
2021/09/26 11:51:58;;;;;;;11.27;10.17;;;19.20;99.90;;;;;;6088320;23;20602;-79
2021/09/26 11:54:30;;;;;;;11.53;10.30;;;19.30;99.90;;;;;;6089959;23;20547;-79
2021/09/26 11:57:12;;;;;;;10.63;9.53;;;19.40;99.90;;;;;;6088719;23;21305;-79
2021/09/26 11:59:46;;;;;;;11.37;10.17;;;19.50;99.90;;;;;;6088957;23;20593;-79
2021/09/26 12:02:34;;;;;;;10.77;9.53;;;19.60;99.90;;;;;;6087911;23;20683;-79
2021/09/26 12:05:14;;;;;;;10.07;8.83;;;19.50;99.90;;;;;;6089255;23;21197;-80
2021/09/26 12:07:57;;;;;;;11.50;10.40;;;19.70;99.90;;;;;;6089406;23;21180;-79
2021/09/26 12:10:43;;;;;;;9.93;9.03;;;19.70;99.90;;;;;;6089284;23;21141;-79
2021/09/26 12:13:30;;;;;;;10.10;9.20;;;19.70;99.90;;;;;;6087621;23;20563;-79
2021/09/26 12:16:08;;;;;;;10.93;9.83;;;19.90;99.90;;;;;;6089630;23;20622;-79
2021/09/26 12:18:52;;;;;;;10.37;9.47;;;20.10;99.90;;;;;;6089488;23;20584;-79
2021/09/26 12:21:35;;;;;;;10.03;9.03;;;20.40;99.90;;;;;;6088182;23;20570;-79
2021/09/26 12:24:15;;;;;;;9.20;8.30;;;20.50;99.90;;;;;;6089224;23;20576;-79
2021/09/26 12:26:56;;;;;;;9.47;8.50;;;20.70;99.90;;;;;;6088983;23;20632;-79
2021/09/26 12:29:52;;;;;;;9.47;8.57;;;20.70;99.90;;;;;;6088614;23;21162;-78
2021/09/26 12:32:47;;;;;;;9.40;7.90;;;20.90;99.90;;;;;;6089238;23;20605;-79
2021/09/26 12:35:41;;;;;;;10.73;8.40;;;21.10;99.90;;;;;;6088110;23;20610;-78
2021/09/26 12:38:38;;;;;;;9.00;8.20;;;21.10;99.90;;;;;;6087431;23;20594;-79
2021/09/26 12:41:30;;;;;;;9.43;8.60;;;21.10;99.90;;;;;;6086616;23;20978;-78
2021/09/26 12:44:23;;;;;;;8.20;7.53;;;21.20;99.90;;;;;;6088249;23;20667;-79
2021/09/26 12:47:13;;;;;;;8.50;7.80;;;21.30;99.90;;;;;;6082733;23;21102;-79
2021/09/26 12:49:53;;;;;;;7.50;6.80;;;21.50;99.90;;;;;;6087077;23;20618;-78
2021/09/26 12:52:41;;;;;;;7.80;7.20;;;21.60;99.90;;;;;;6086695;23;20616;-79
2021/09/26 12:55:31;;;;;;;7.03;6.43;;;21.60;99.90;;;;;;6089150;23;20639;-79
2021/09/26 12:58:21;;;;;;;8.40;7.70;;;21.70;99.80;;;;;;6090220;23;20593;-79
2021/09/26 13:01:25;;;;;;;8.10;7.37;;;21.50;99.80;;;;;;6089712;23;21153;-79
2021/09/26 13:04:16;;;;;;;7.50;6.80;;;21.50;99.90;;;;;;6089188;23;20624;-79
2021/09/26 13:06:52;;;;;;;7.20;6.60;;;21.60;99.70;;;;;;6090053;23;20626;-79
2021/09/26 13:09:40;;;;;;;7.33;6.63;;;21.60;99.90;;;;;;6090195;23;20580;-79
2021/09/26 13:12:30;;;;;;;8.57;7.70;;;21.60;99.90;;;;;;6088970;23;21003;-79
2021/09/26 13:15:31;;;;;;;10.20;8.97;;;21.50;99.90;;;;;;6090226;23;20593;-79
2021/09/26 13:18:33;;;;;;;9.33;8.47;;;21.50;99.90;;;;;;6088751;23;20806;-79
2021/09/26 13:21:29;;;;;;;8.50;7.73;;;21.70;99.90;;;;;;6090132;22;20638;-79
2021/09/26 13:24:08;;;;;;;9.20;7.90;;;21.70;99.90;;;;;;6090210;23;21265;-79
2021/09/26 13:26:45;;;;;;;8.40;7.60;;;21.70;99.90;;;;;;6089649;23;20632;-79
2021/09/26 13:29:27;;;;;;;8.00;7.30;;;21.60;99.90;;;;;;6090071;23;20699;-79
2021/09/26 13:32:18;;;;;;;8.87;8.07;;;21.50;99.90;;;;;;6089389;23;20632;-79
2021/09/26 13:35:05;;;;;;;9.03;8.10;;;21.50;99.90;;;;;;6090191;23;21193;-79
2021/09/26 13:38:06;;;;;;;10.30;8.83;;;21.40;99.90;;;;;;6089829;23;20573;-79
2021/09/26 13:40:47;;;;;;;9.33;8.33;;;21.30;99.90;;;;;;6090244;23;20596;-79
2021/09/26 13:43:32;;;;;;;9.57;8.63;;;21.40;99.90;;;;;;6090102;23;21164;-78
2021/09/26 13:46:18;;;;;;;8.43;7.73;;;21.40;99.90;;;;;;6090154;23;20632;-79
2021/09/26 13:49:02;;;;;;;8.50;7.80;;;21.60;99.90;;;;;;6088367;22;20693;-78
2021/09/26 13:51:43;;;;;;;7.80;7.20;;;21.70;99.90;;;;;;6090153;23;20569;-79
2021/09/26 13:54:17;;;;;;;8.33;7.53;;;21.90;99.90;;;;;;6089792;23;20585;-79
2021/09/26 13:56:57;;;;;;;8.67;7.90;;;22.10;99.80;;;;;;6090260;23;20585;-78
2021/09/26 13:59:38;;;;;;;8.80;8.10;;;22.50;99.30;;;;;;6090044;23;20586;-78
2021/09/26 14:02:25;;;;;;;10.10;8.37;;;22.70;99.00;;;;;;6088427;23;21167;-79
2021/09/26 14:05:04;;;;;;;10.10;8.33;;;22.60;98.20;;;;;;6088972;23;20959;-79